KBURKBIH

Guest
Details From KBUR - BOB HOPE
To KBIH - EASTERN SIERRA RGNL
Flight Number -
Tags generated
Created
Modified
Stats Distance 201 nm / 372 km
Max Altitude 18,900 ft / 5,761 m
Waypoints 3
Social Downloads 0
Likes 0
Share VATSIM

Download

Looking for another format? Having issues loading an existing format? Contact us
Advertisement - Login to hide

Notes

Basic altitude profile: - Ascent Rate: 2500ft/min - Ascent Speed: 250kts - Cruise Altitude: 35000ft - Cruise Speed: 420kts - Descent Rate: 1500ft/min - Descent Speed: 250kts

Route

KBUR TTE KBIH

ID Type Via Altitude Latitude Longitude Leg Dist Tot Dist Heading (true) Name
O KBUR APT - 0 ft / 0 m 34.20048˚ -118.35877˚ - 0 nm - BOB HOPE
TTE VOR - 18,900 ft / 5,761 m 35.91306˚ -119.02081˚ 107 nm 107 nm 343° / 342° TULE VOR-DME
O KBIH APT - 0 ft / 0 m 37.37314˚ -118.36353˚ 93 nm 201 nm 20° / 20° EASTERN SIERRA RGNL

Altitude Profile

Advertisement - Login to hide

Weather


0- 5 10 15 20 25 30 35+ Temperature / ° C

Clouds and Precipitation
Forecast for 2017-12-13 18:00 UTC. Updated 2 hours ago

Ground ~20,000 ft ~40,000 ft Winds

KBUR

Details ICAO KBUR (BUR)
Name BOB HOPE
Region United States
Timezone America/Los_Angeles (UTC-8.0)
Stats Elevation 778 ft / 237 m (AMSL)
Location 34.200475° -118.358767°
Runways 2
Magnetic Variation 12.047° E

METAR

KBUR 131653Z 00000KT 10SM CLR 18/M10 A3004 RMK AO2 SLP163 T01781100 $

Decode

TAF

TAF KBUR 131147Z 1312/1412 VRB03KT P6SM SKC FM132100 18008KT P6SM SKC FM140400 VRB03KT P6SM SKC

Decode

Departure Runways

ID Width Length Bearing (true) Bearing (mag) Surface Threshold Offset Overrun Length
08 151 ft / 46 m 5,835 ft / 1,779 m 90.92° 78.87° Asphalt 0 ft / 0 m 259 ft / 79 m
15 151 ft / 46 m 6,962 ft / 2,122 m 167.12° 155.07° Asphalt 909 ft / 277 m 0 ft / 0 m
26 151 ft / 46 m 5,835 ft / 1,779 m 270.93° 258.88° Asphalt 0 ft / 0 m 253 ft / 77 m
33 151 ft / 46 m 6,962 ft / 2,122 m 347.12° 335.07° Asphalt 351 ft / 107 m 0 ft / 0 m

KBIH

Details ICAO KBIH
Name EASTERN SIERRA RGNL
Region United States
Timezone America/Los_Angeles (UTC-8.0)
Stats Elevation 4,124 ft / 1,257 m (AMSL)
Location 37.373143° -118.363525°
Runways 3
Magnetic Variation 12.674° E

METAR

KBIH 131656Z AUTO 33004KT 10SM CLR 08/M21 A3025 RMK AO2 SLP245 T00781206 TSNO

Decode

TAF

KBIH 131125Z 1312/1412 33008KT P6SM SKC FM140400 35017G24KT P6SM BKN250

Decode

Destination Runways

ID Width Length Bearing (true) Bearing (mag) Surface Threshold Offset Overrun Length
07 100 ft / 30 m 5,554 ft / 1,693 m 90.49° 77.82° Asphalt 0 ft / 0 m 0 ft / 0 m
12 100 ft / 30 m 7,497 ft / 2,285 m 135.61° 122.94° Asphalt 0 ft / 0 m 0 ft / 0 m
16 100 ft / 30 m 5,611 ft / 1,710 m 180.49° 167.82° Asphalt 0 ft / 0 m 0 ft / 0 m
25 100 ft / 30 m 5,554 ft / 1,693 m 270.51° 257.84° Asphalt 0 ft / 0 m 0 ft / 0 m
30 100 ft / 30 m 7,497 ft / 2,285 m 315.62° 302.95° Asphalt 0 ft / 0 m 0 ft / 0 m
34 100 ft / 30 m 5,611 ft / 1,710 m 0.49° 347.82° Asphalt 0 ft / 0 m 0 ft / 0 m